createdAt,value
2024-01-20T00:02:18.686Z,6.20
2024-01-20T00:04:45.487Z,6.10
2024-01-20T00:07:12.318Z,6.10
2024-01-20T00:09:46.663Z,6.00
2024-01-20T00:12:17.778Z,6.00
2024-01-20T00:14:45.274Z,6.00
2024-01-20T00:17:21.042Z,6.00
2024-01-20T00:19:54.341Z,6.00
2024-01-20T00:22:22.528Z,6.10
2024-01-20T00:24:50.632Z,6.00
2024-01-20T00:27:18.270Z,6.00
2024-01-20T00:29:46.843Z,6.00
2024-01-20T00:32:14.319Z,6.00
2024-01-20T00:34:51.577Z,6.00
2024-01-20T00:37:26.948Z,6.00
2024-01-20T00:39:53.699Z,6.00
2024-01-20T00:42:20.433Z,5.90
2024-01-20T00:44:47.164Z,5.90
2024-01-20T00:47:14.130Z,5.90
2024-01-20T00:49:40.996Z,5.90
2024-01-20T00:52:08.205Z,5.90
2024-01-20T00:54:34.965Z,5.90
2024-01-20T00:57:02.853Z,5.90
2024-01-20T00:59:29.560Z,5.90
2024-01-20T01:01:56.349Z,5.90
2024-01-20T01:04:23.152Z,5.80
2024-01-20T01:06:49.986Z,5.80
2024-01-20T01:09:17.169Z,5.80
2024-01-20T01:11:43.959Z,5.80
2024-01-20T01:14:10.810Z,5.80
2024-01-20T01:16:37.668Z,5.70
2024-01-20T01:19:05.098Z,5.60
2024-01-20T01:21:31.871Z,5.60
2024-01-20T01:23:58.660Z,5.60
2024-01-20T01:26:28.444Z,5.60
2024-01-20T01:28:56.332Z,5.60
2024-01-20T01:31:23.171Z,5.70
2024-01-20T01:33:50.476Z,5.60
2024-01-20T01:36:18.765Z,5.70
2024-01-20T01:38:45.550Z,5.60
2024-01-20T01:41:12.411Z,5.60
2024-01-20T01:43:39.297Z,5.60
2024-01-20T01:46:06.254Z,5.50
2024-01-20T01:48:34.688Z,5.50
2024-01-20T01:51:04.529Z,5.50
2024-01-20T01:53:33.465Z,5.40
2024-01-20T01:56:02.049Z,5.40
2024-01-20T01:58:29.811Z,5.30
2024-01-20T02:00:56.722Z,5.30
2024-01-20T02:03:24.220Z,5.20
2024-01-20T02:05:51.246Z,5.20
2024-01-20T02:08:18.269Z,5.10
2024-01-20T02:10:47.719Z,5.20
2024-01-20T02:13:16.086Z,5.20
2024-01-20T02:15:43.486Z,5.20
2024-01-20T02:18:10.958Z,5.20
2024-01-20T02:20:38.072Z,5.20
2024-01-20T02:23:04.986Z,5.10
2024-01-20T02:25:31.940Z,5.10
2024-01-20T02:27:58.760Z,5.10
2024-01-20T02:30:25.569Z,5.10
2024-01-20T02:32:52.514Z,5.10
2024-01-20T02:35:22.403Z,5.00
2024-01-20T02:37:50.311Z,5.00
2024-01-20T02:40:18.087Z,4.90
2024-01-20T02:42:45.971Z,4.90
2024-01-20T02:45:14.954Z,4.80
2024-01-20T02:47:42.964Z,4.80
2024-01-20T02:50:09.896Z,4.90
2024-01-20T02:52:36.632Z,4.90
2024-01-20T02:55:03.670Z,4.90
2024-01-20T02:57:30.633Z,5.00
2024-01-20T02:59:58.097Z,5.00
2024-01-20T03:02:25.038Z,4.90
2024-01-20T03:04:51.948Z,5.00
2024-01-20T03:07:19.160Z,5.00
2024-01-20T03:09:45.880Z,5.00
2024-01-20T03:12:13.632Z,4.90
2024-01-20T03:14:40.364Z,5.00
2024-01-20T03:17:07.134Z,5.10
2024-01-20T03:19:33.954Z,5.10
2024-01-20T03:22:00.821Z,5.20
2024-01-20T03:24:27.595Z,5.10
2024-01-20T03:26:57.928Z,5.10
2024-01-20T03:29:26.315Z,5.10
2024-01-20T03:31:53.077Z,5.20
2024-01-20T03:34:20.342Z,5.10
2024-01-20T03:36:48.134Z,5.20
2024-01-20T03:39:14.970Z,5.10
2024-01-20T03:41:41.846Z,5.10
2024-01-20T03:44:08.543Z,5.00
2024-01-20T03:46:35.422Z,5.00
2024-01-20T03:49:02.384Z,5.00
2024-01-20T03:51:29.387Z,5.00
2024-01-20T03:53:56.321Z,5.00
2024-01-20T03:56:23.221Z,5.00
2024-01-20T03:58:50.947Z,5.10
2024-01-20T04:01:17.657Z,5.10
2024-01-20T04:03:44.656Z,5.10
2024-01-20T04:06:11.550Z,5.10
2024-01-20T04:08:38.315Z,5.20
2024-01-20T04:11:05.344Z,5.20
2024-01-20T04:13:32.230Z,5.20
2024-01-20T04:15:58.975Z,5.10
2024-01-20T04:18:25.845Z,5.10
2024-01-20T04:20:52.817Z,5.10
2024-01-20T04:23:21.594Z,5.10
2024-01-20T04:25:48.513Z,5.10
2024-01-20T04:28:15.225Z,5.10
2024-01-20T04:30:42.305Z,5.10
2024-01-20T04:33:09.236Z,5.10
2024-01-20T04:35:36.098Z,5.20
2024-01-20T04:38:04.222Z,5.20
2024-01-20T04:40:31.965Z,5.20
2024-01-20T04:42:58.933Z,5.20
2024-01-20T04:45:25.693Z,5.10
2024-01-20T04:47:52.711Z,5.20
2024-01-20T04:50:19.555Z,5.20
2024-01-20T04:52:47.264Z,5.20
2024-01-20T04:55:14.143Z,5.20
2024-01-20T04:57:40.835Z,5.20
2024-01-20T05:00:08.514Z,5.20
2024-01-20T05:02:36.948Z,5.20
2024-01-20T05:05:04.658Z,5.20
2024-01-20T05:07:32.533Z,5.10
2024-01-20T05:09:59.525Z,5.20
2024-01-20T05:12:27.135Z,5.10
2024-01-20T05:14:55.010Z,5.10
2024-01-20T05:17:21.971Z,5.10
2024-01-20T05:19:48.848Z,5.10
2024-01-20T05:22:18.373Z,5.10
2024-01-20T05:24:45.493Z,5.10
2024-01-20T05:27:12.412Z,5.10
2024-01-20T05:29:39.212Z,5.20
2024-01-20T05:32:06.055Z,5.30
2024-01-20T05:34:33.017Z,5.40
2024-01-20T05:36:59.948Z,5.40
2024-01-20T05:39:26.814Z,5.40
2024-01-20T05:41:53.857Z,5.40
2024-01-20T05:44:21.557Z,5.40
2024-01-20T05:46:48.338Z,5.40
2024-01-20T05:49:15.342Z,5.50
2024-01-20T05:51:42.193Z,5.50
2024-01-20T05:54:09.111Z,5.50
2024-01-20T05:56:35.917Z,5.50
2024-01-20T05:59:02.882Z,5.50
2024-01-20T06:01:29.896Z,5.40
2024-01-20T06:03:57.767Z,5.30
2024-01-20T06:06:24.654Z,5.30
2024-01-20T06:08:51.515Z,5.20
2024-01-20T06:11:18.344Z,5.10
2024-01-20T06:13:45.208Z,5.00
2024-01-20T06:16:13.657Z,5.00
2024-01-20T06:18:40.760Z,5.00
2024-01-20T06:21:07.806Z,5.00
2024-01-20T06:23:35.046Z,4.90
2024-01-20T06:26:02.014Z,4.80
2024-01-20T06:28:28.874Z,4.80
2024-01-20T06:30:55.604Z,4.80
2024-01-20T06:33:22.445Z,4.80
2024-01-20T06:35:49.249Z,4.90
2024-01-20T06:38:16.289Z,4.90
2024-01-20T06:40:43.127Z,4.90
2024-01-20T06:43:10.470Z,4.80
2024-01-20T06:45:37.315Z,4.90
2024-01-20T06:48:06.236Z,4.80
2024-01-20T06:50:33.358Z,4.90
2024-01-20T06:53:00.071Z,4.80
2024-01-20T06:55:26.826Z,4.90
2024-01-20T06:57:53.519Z,4.90
2024-01-20T07:00:20.623Z,4.90
2024-01-20T07:02:47.464Z,4.90
2024-01-20T07:05:14.268Z,4.80
2024-01-20T07:07:42.460Z,4.70
2024-01-20T07:10:10.262Z,4.50
2024-01-20T07:12:37.707Z,4.50
2024-01-20T07:15:06.690Z,4.40
2024-01-20T07:17:33.788Z,4.30
2024-01-20T07:20:00.606Z,4.20
2024-01-20T07:22:27.487Z,4.10
2024-01-20T07:24:55.394Z,4.00
2024-01-20T07:27:22.612Z,4.00
2024-01-20T07:29:51.393Z,3.90
2024-01-20T07:32:18.147Z,3.80
2024-01-20T07:34:44.943Z,3.80
2024-01-20T07:37:12.116Z,3.70
2024-01-20T07:39:39.000Z,3.70
2024-01-20T07:42:07.842Z,3.70
2024-01-20T07:44:35.614Z,3.70
2024-01-20T07:47:02.910Z,3.70
2024-01-20T07:49:29.952Z,3.70
2024-01-20T07:51:56.827Z,3.70
2024-01-20T07:54:23.574Z,3.70
2024-01-20T07:56:50.387Z,3.70
2024-01-20T07:59:18.210Z,3.70
2024-01-20T08:01:45.116Z,3.70
2024-01-20T08:04:12.159Z,3.70
2024-01-20T08:06:39.235Z,3.70
2024-01-20T08:09:07.504Z,3.70
2024-01-20T08:11:34.318Z,3.70
2024-01-20T08:14:01.124Z,3.70
2024-01-20T08:16:29.630Z,3.70
2024-01-20T08:18:57.102Z,3.70
2024-01-20T08:21:25.198Z,3.70
2024-01-20T08:23:52.319Z,3.70
2024-01-20T08:26:19.052Z,3.70
2024-01-20T08:28:45.848Z,3.60
2024-01-20T08:31:12.946Z,3.60
2024-01-20T08:33:40.197Z,3.60
2024-01-20T08:36:07.463Z,3.60
2024-01-20T08:38:34.318Z,3.60
2024-01-20T08:41:07.486Z,3.60
2024-01-20T08:43:34.266Z,3.60
2024-01-20T08:46:00.987Z,3.60
2024-01-20T08:48:30.418Z,3.60
2024-01-20T08:50:57.222Z,3.50
2024-01-20T08:53:23.936Z,3.60
2024-01-20T08:55:50.689Z,3.60
2024-01-20T08:58:17.444Z,3.60
2024-01-20T09:00:44.241Z,3.60
2024-01-20T09:03:11.435Z,3.60
2024-01-20T09:05:39.516Z,3.60
2024-01-20T09:08:09.012Z,3.60
2024-01-20T09:10:37.407Z,3.60
2024-01-20T09:13:08.487Z,3.60
2024-01-20T09:15:35.454Z,3.60
2024-01-20T09:18:02.674Z,3.70
2024-01-20T09:20:29.565Z,3.70
2024-01-20T09:22:56.470Z,3.80
2024-01-20T09:25:23.327Z,3.80
2024-01-20T09:27:50.029Z,3.80
2024-01-20T09:30:16.961Z,3.80
2024-01-20T09:32:43.761Z,3.70
2024-01-20T09:35:10.688Z,3.70
2024-01-20T09:37:38.164Z,3.70
2024-01-20T09:40:06.886Z,3.70
2024-01-20T09:42:34.738Z,3.70
2024-01-20T09:45:02.117Z,3.70
2024-01-20T09:47:28.918Z,3.70
2024-01-20T09:49:55.975Z,3.80
2024-01-20T09:52:30.228Z,3.90
2024-01-20T09:55:11.645Z,3.90
2024-01-20T09:57:40.222Z,3.90
2024-01-20T10:00:09.497Z,4.00
2024-01-20T10:02:38.354Z,4.00
2024-01-20T10:05:06.429Z,4.00
2024-01-20T10:07:33.277Z,4.10
2024-01-20T10:10:00.063Z,4.10
2024-01-20T10:12:26.954Z,4.00
2024-01-20T10:14:54.037Z,4.00
2024-01-20T10:17:21.073Z,4.10
2024-01-20T10:19:48.252Z,4.10
2024-01-20T10:22:15.168Z,4.10
2024-01-20T10:24:52.966Z,4.10
2024-01-20T10:27:26.480Z,4.10
2024-01-20T10:29:53.285Z,4.20
2024-01-20T10:32:21.080Z,4.30
2024-01-20T10:34:47.945Z,4.40
2024-01-20T10:37:15.383Z,4.50
2024-01-20T10:39:46.411Z,4.60
2024-01-20T10:42:15.724Z,4.70
2024-01-20T10:45:06.631Z,4.70
2024-01-20T10:47:38.798Z,4.80
2024-01-20T10:50:07.043Z,4.90
2024-01-20T10:52:37.576Z,5.00
2024-01-20T10:55:06.357Z,5.00
2024-01-20T10:57:33.871Z,5.00
2024-01-20T11:00:05.808Z,5.00
2024-01-20T11:02:33.056Z,5.10
2024-01-20T11:04:59.846Z,5.10
2024-01-20T11:07:33.094Z,5.00
2024-01-20T11:10:00.884Z,5.00
2024-01-20T11:12:29.090Z,5.10
2024-01-20T11:14:57.283Z,5.10
2024-01-20T11:17:24.859Z,5.20
2024-01-20T11:19:52.135Z,5.30
2024-01-20T11:22:32.861Z,5.30
2024-01-20T11:25:05.183Z,5.30
2024-01-20T11:27:32.073Z,5.30
2024-01-20T11:30:09.394Z,5.30
2024-01-20T11:32:36.477Z,5.40
2024-01-20T11:35:05.864Z,5.50
2024-01-20T11:37:32.919Z,5.50
2024-01-20T11:40:09.779Z,5.50
2024-01-20T11:42:37.395Z,5.50
2024-01-20T11:45:05.149Z,5.60
2024-01-20T11:47:33.038Z,5.50
2024-01-20T11:50:00.623Z,5.60
2024-01-20T11:52:27.556Z,5.60
2024-01-20T11:54:54.548Z,5.60
2024-01-20T11:57:27.868Z,5.70
2024-01-20T11:59:54.914Z,5.70
2024-01-20T12:02:22.170Z,5.80
2024-01-20T12:04:50.246Z,5.80
2024-01-20T12:07:18.429Z,5.80
2024-01-20T12:09:46.821Z,5.80
2024-01-20T12:12:15.457Z,5.80
2024-01-20T12:14:45.839Z,5.90
2024-01-20T12:17:13.764Z,6.00
2024-01-20T12:19:41.563Z,6.00
2024-01-20T12:22:15.914Z,6.10
2024-01-20T12:24:49.953Z,6.20
2024-01-20T12:27:17.686Z,6.40
2024-01-20T12:29:44.515Z,6.40
2024-01-20T12:32:11.715Z,6.60
2024-01-20T12:34:38.715Z,6.60
2024-01-20T12:37:07.461Z,6.60
2024-01-20T12:39:35.804Z,6.60
2024-01-20T12:42:03.389Z,6.60
2024-01-20T12:44:30.202Z,6.60
2024-01-20T12:46:57.228Z,6.60
2024-01-20T12:49:24.622Z,6.60
2024-01-20T12:51:51.457Z,6.50
2024-01-20T12:54:18.239Z,6.60
2024-01-20T12:56:46.455Z,6.60
2024-01-20T12:59:13.395Z,6.70
2024-01-20T13:01:40.161Z,6.80
2024-01-20T13:04:06.934Z,6.80
2024-01-20T13:06:33.908Z,6.80
2024-01-20T13:09:00.911Z,6.90
2024-01-20T13:11:29.374Z,6.90
2024-01-20T13:13:57.314Z,6.90
2024-01-20T13:16:24.133Z,6.90
2024-01-20T13:18:53.331Z,6.80
2024-01-20T13:21:20.560Z,6.70
2024-01-20T13:23:47.780Z,6.70
2024-01-20T13:26:14.562Z,6.60
2024-01-20T13:28:41.426Z,6.70
2024-01-20T13:31:08.264Z,6.70
2024-01-20T13:33:35.192Z,6.60
2024-01-20T13:36:02.042Z,6.60
2024-01-20T13:38:28.930Z,6.60
2024-01-20T13:40:55.669Z,6.60
2024-01-20T13:43:22.474Z,6.50
2024-01-20T13:45:49.210Z,6.50
2024-01-20T13:48:17.067Z,6.50
2024-01-20T13:50:43.912Z,6.60
2024-01-20T13:53:10.793Z,6.60
2024-01-20T13:55:38.221Z,6.70
2024-01-20T13:58:04.987Z,6.70
2024-01-20T14:00:31.757Z,6.80
2024-01-20T14:02:58.606Z,6.80
2024-01-20T14:05:25.384Z,6.80
2024-01-20T14:07:52.115Z,6.90
2024-01-20T14:10:18.871Z,6.90
2024-01-20T14:12:46.705Z,7.00
2024-01-20T14:15:13.631Z,7.00
2024-01-20T14:17:40.817Z,7.00
2024-01-20T14:20:08.322Z,7.10
2024-01-20T14:22:35.024Z,7.10
2024-01-20T14:25:05.490Z,7.10
2024-01-20T14:27:34.195Z,7.10
2024-01-20T14:30:01.068Z,7.20
2024-01-20T14:32:27.892Z,7.10
2024-01-20T14:34:55.141Z,7.20
2024-01-20T14:37:22.023Z,7.10
2024-01-20T14:39:48.744Z,7.00
2024-01-20T14:42:15.860Z,6.90
2024-01-20T14:44:43.156Z,6.80
2024-01-20T14:47:10.171Z,6.90
2024-01-20T14:49:36.993Z,6.90
2024-01-20T14:52:03.980Z,7.00
2024-01-20T14:54:30.807Z,7.00
2024-01-20T14:56:57.513Z,6.90
2024-01-20T14:59:24.292Z,6.90
2024-01-20T15:01:50.940Z,6.90
2024-01-20T15:04:17.893Z,7.00
2024-01-20T15:06:44.880Z,7.00
2024-01-20T15:09:11.788Z,6.90
2024-01-20T15:11:39.748Z,6.90
2024-01-20T15:14:08.934Z,6.90
2024-01-20T15:16:36.466Z,6.80
2024-01-20T15:19:07.257Z,6.80
2024-01-20T15:21:34.238Z,6.80
2024-01-20T15:24:01.160Z,6.80
2024-01-20T15:26:27.909Z,6.70
2024-01-20T15:28:54.697Z,6.60
2024-01-20T15:31:21.471Z,6.50
2024-01-20T15:33:48.791Z,6.60
2024-01-20T15:36:19.184Z,6.60
2024-01-20T15:38:46.085Z,6.60
2024-01-20T15:41:12.942Z,6.60
2024-01-20T15:43:39.726Z,6.70
2024-01-20T15:46:06.467Z,6.70
2024-01-20T15:48:33.311Z,6.70
2024-01-20T15:51:00.267Z,6.70
2024-01-20T15:53:27.162Z,6.80
2024-01-20T15:55:54.683Z,6.80
2024-01-20T15:58:21.396Z,6.80
2024-01-20T16:00:48.206Z,6.70
2024-01-20T16:03:15.056Z,6.70
2024-01-20T16:05:41.924Z,6.60
2024-01-20T16:08:10.299Z,6.60
2024-01-20T16:10:37.119Z,6.50
2024-01-20T16:13:03.994Z,6.60
2024-01-20T16:15:30.750Z,6.50
2024-01-20T16:17:57.795Z,6.50
2024-01-20T16:20:24.731Z,6.50
2024-01-20T16:22:51.504Z,6.50
2024-01-20T16:25:18.563Z,6.50
2024-01-20T16:27:48.468Z,6.50
2024-01-20T16:30:15.527Z,6.50
2024-01-20T16:32:42.327Z,6.50
2024-01-20T16:35:09.973Z,6.50
2024-01-20T16:37:37.417Z,6.50
2024-01-20T16:40:05.622Z,6.50
2024-01-20T16:42:32.454Z,6.50
2024-01-20T16:44:59.378Z,6.50
2024-01-20T16:47:26.318Z,6.50
2024-01-20T16:49:53.385Z,6.50
2024-01-20T16:52:20.259Z,6.50
2024-01-20T16:54:46.998Z,6.50
2024-01-20T16:57:15.352Z,6.50
2024-01-20T16:59:42.992Z,6.50
2024-01-20T17:02:09.688Z,6.50
2024-01-20T17:04:36.795Z,6.40
2024-01-20T17:07:04.067Z,6.30
2024-01-20T17:09:33.128Z,6.30
2024-01-20T17:12:01.020Z,6.30
2024-01-20T17:14:27.904Z,6.30
2024-01-20T17:16:54.694Z,6.20
2024-01-20T17:19:21.581Z,6.20
2024-01-20T17:21:48.433Z,6.30
2024-01-20T17:24:15.836Z,6.30
2024-01-20T17:26:42.806Z,6.20
2024-01-20T17:29:10.341Z,6.30
2024-01-20T17:31:38.947Z,6.20
2024-01-20T17:34:06.889Z,6.20
2024-01-20T17:36:33.871Z,6.20
2024-01-20T17:39:01.564Z,6.30
2024-01-20T17:41:28.536Z,6.30
2024-01-20T17:43:55.349Z,6.30
2024-01-20T17:46:22.056Z,6.30
2024-01-20T17:48:49.639Z,6.30
2024-01-20T17:51:16.657Z,6.30
2024-01-20T17:53:43.403Z,6.30
2024-01-20T17:56:10.123Z,6.20
2024-01-20T17:58:36.908Z,6.20
2024-01-20T18:01:03.766Z,6.00
2024-01-20T18:03:30.738Z,5.80
2024-01-20T18:05:57.706Z,5.80
2024-01-20T18:08:25.755Z,5.80
2024-01-20T18:10:52.665Z,5.80
2024-01-20T18:13:19.457Z,5.80
2024-01-20T18:15:46.474Z,5.90
2024-01-20T18:18:13.775Z,5.90
2024-01-20T18:20:40.832Z,5.90
2024-01-20T18:23:07.805Z,5.90
2024-01-20T18:25:35.619Z,5.90
2024-01-20T18:28:03.093Z,6.00
2024-01-20T18:30:29.870Z,6.00
2024-01-20T18:32:56.735Z,6.00
2024-01-20T18:35:23.525Z,6.10
2024-01-20T18:37:50.541Z,6.10
2024-01-20T18:40:17.373Z,6.10
2024-01-20T18:42:46.876Z,6.10
2024-01-20T18:45:14.015Z,6.10
2024-01-20T18:47:41.517Z,6.10
2024-01-20T18:50:12.646Z,6.10
2024-01-20T18:52:39.545Z,6.10
2024-01-20T18:55:06.572Z,6.10
2024-01-20T18:57:33.633Z,6.10
2024-01-20T19:00:01.259Z,6.20
2024-01-20T19:02:27.921Z,6.20
2024-01-20T19:04:54.760Z,6.10
2024-01-20T19:07:21.655Z,6.20
2024-01-20T19:09:48.607Z,6.30
2024-01-20T19:12:15.522Z,6.30
2024-01-20T19:14:42.919Z,6.30
2024-01-20T19:17:14.428Z,6.20
2024-01-20T19:19:41.514Z,6.20
2024-01-20T19:22:08.335Z,6.20
2024-01-20T19:24:35.843Z,6.10
2024-01-20T19:27:02.796Z,6.10
2024-01-20T19:29:29.562Z,6.10
2024-01-20T19:31:56.297Z,6.10
2024-01-20T19:34:23.235Z,6.10
2024-01-20T19:36:50.138Z,6.10
2024-01-20T19:39:17.028Z,6.10
2024-01-20T19:41:43.813Z,6.20
2024-01-20T19:44:10.519Z,6.20
2024-01-20T19:46:40.955Z,6.30
2024-01-20T19:49:07.917Z,6.20
2024-01-20T19:51:35.021Z,6.20
2024-01-20T19:54:01.857Z,6.20
2024-01-20T19:56:28.623Z,6.20
2024-01-20T19:58:55.328Z,6.20
2024-01-20T20:01:23.172Z,6.20
2024-01-20T20:03:50.746Z,6.20
2024-01-20T20:06:17.689Z,6.20
2024-01-20T20:08:44.509Z,6.20
2024-01-20T20:11:11.769Z,6.20
2024-01-20T20:13:41.029Z,6.30
2024-01-20T20:16:10.615Z,6.30
2024-01-20T20:18:37.598Z,6.30
2024-01-20T20:21:04.868Z,6.40
2024-01-20T20:23:31.615Z,6.40
2024-01-20T20:25:58.404Z,6.40
2024-01-20T20:28:25.175Z,6.40
2024-01-20T20:30:57.399Z,6.40
2024-01-20T20:33:30.794Z,6.40
2024-01-20T20:35:57.646Z,6.40
2024-01-20T20:38:24.623Z,6.40
2024-01-20T20:40:51.642Z,6.40
2024-01-20T20:43:18.459Z,6.40
2024-01-20T20:45:45.194Z,6.40
2024-01-20T20:48:12.104Z,6.50
2024-01-20T20:50:39.662Z,6.50
2024-01-20T20:53:06.404Z,6.50
2024-01-20T20:55:33.368Z,6.50
2024-01-20T20:58:00.122Z,6.60
2024-01-20T21:00:26.939Z,6.60
2024-01-20T21:02:53.723Z,6.60
2024-01-20T21:05:21.824Z,6.70
2024-01-20T21:07:49.663Z,6.70
2024-01-20T21:10:18.338Z,6.70
2024-01-20T21:12:46.069Z,6.80
2024-01-20T21:15:13.756Z,6.70
2024-01-20T21:17:41.408Z,6.70
2024-01-20T21:20:12.635Z,6.70
2024-01-20T21:22:39.632Z,6.70
2024-01-20T21:25:07.143Z,6.80
2024-01-20T21:27:34.090Z,6.80
2024-01-20T21:30:00.924Z,6.80
2024-01-20T21:32:28.258Z,6.90
2024-01-20T21:34:55.968Z,6.90
2024-01-20T21:37:24.895Z,6.90
2024-01-20T21:39:51.849Z,6.90
2024-01-20T21:42:19.968Z,7.00
2024-01-20T21:44:46.893Z,7.10
2024-01-20T21:47:14.153Z,7.10
2024-01-20T21:49:41.047Z,7.10
2024-01-20T21:52:08.006Z,7.10
2024-01-20T21:54:34.770Z,7.10
2024-01-20T21:57:01.511Z,7.00
2024-01-20T21:59:28.590Z,7.00
2024-01-20T22:01:55.486Z,7.00
2024-01-20T22:04:24.855Z,7.00
2024-01-20T22:06:51.785Z,7.00
2024-01-20T22:09:18.722Z,7.00
2024-01-20T22:11:45.548Z,7.10
2024-01-20T22:14:12.366Z,7.10
2024-01-20T22:16:39.193Z,7.10
2024-01-20T22:19:07.369Z,7.10
2024-01-20T22:21:34.325Z,7.10
2024-01-20T22:24:01.132Z,7.20
2024-01-20T22:26:27.857Z,7.20
2024-01-20T22:28:55.796Z,7.30
2024-01-20T22:31:23.820Z,7.30
2024-01-20T22:33:50.669Z,7.40
2024-01-20T22:36:18.458Z,7.50
2024-01-20T22:38:46.623Z,7.50
2024-01-20T22:41:17.418Z,7.40
2024-01-20T22:43:45.724Z,7.30
2024-01-20T22:46:16.972Z,7.30
2024-01-20T22:48:44.226Z,7.40
2024-01-20T22:51:20.142Z,7.40
2024-01-20T22:53:47.034Z,7.40
2024-01-20T22:56:14.533Z,7.40
2024-01-20T22:58:41.339Z,7.40
2024-01-20T23:01:08.137Z,7.30
2024-01-20T23:03:35.138Z,7.30
2024-01-20T23:06:02.992Z,7.30
2024-01-20T23:08:29.960Z,7.30
2024-01-20T23:10:56.858Z,7.30
2024-01-20T23:13:23.785Z,7.30
2024-01-20T23:15:50.585Z,7.30
2024-01-20T23:18:17.494Z,7.30
2024-01-20T23:20:44.339Z,7.30
2024-01-20T23:23:12.398Z,7.30
2024-01-20T23:25:39.146Z,7.40
2024-01-20T23:28:06.043Z,7.50
2024-01-20T23:30:32.905Z,7.50
2024-01-20T23:33:00.173Z,7.60
2024-01-20T23:35:27.472Z,7.60
2024-01-20T23:37:54.217Z,7.70
2024-01-20T23:40:20.924Z,7.60
2024-01-20T23:42:47.705Z,7.60
2024-01-20T23:45:14.626Z,7.50
2024-01-20T23:47:41.437Z,7.60
2024-01-20T23:50:08.639Z,7.60
2024-01-20T23:52:36.394Z,7.60
2024-01-20T23:55:03.199Z,7.50
2024-01-20T23:57:30.145Z,7.40
2024-01-20T23:59:57.026Z,7.40
